Time;durP1;ratioP1;P1;durP2;ratioP2;P2;SDS_P1;SDS_P2;PMS_P1;PMS_P2;Temp;Humidity;BMP_temperature;BMP_pressure;BME280_temperature;BME280_humidity;BME280_pressure;Samples;Min_cycle;Max_cycle;Signal;HPM_P1;HPM_P2
2022/05/28 00:00:34;;;;;;;3.00;2.75;;;;;;;16.03;92.72;99927.14;1735824;82;20891;-44
2022/05/28 00:03:01;;;;;;;7.65;2.75;;;;;;;16.04;93.72;100024.11;1735996;82;20878;-44
2022/05/28 00:05:29;;;;;;;5.37;2.70;;;;;;;16.02;93.73;100029.39;1714925;82;21401;-45
2022/05/28 00:07:56;;;;;;;6.28;2.70;;;;;;;16.03;92.81;100023.73;1735917;82;20893;-44
2022/05/28 00:10:23;;;;;;;2.75;2.50;;;;;;;16.07;92.28;100009.16;1735837;82;20980;-45
2022/05/28 00:12:52;;;;;;;4.08;2.92;;;;;;;16.08;91.87;100012.16;1735888;82;20933;-44
2022/05/28 00:15:20;;;;;;;2.83;2.40;;;;;;;16.09;91.82;100032.11;1735966;82;21483;-45
2022/05/28 00:17:48;;;;;;;4.90;2.40;;;;;;;16.09;92.08;100022.12;1735905;81;21043;-45
2022/05/28 00:20:15;;;;;;;8.35;2.85;;;;;;;16.03;92.17;100016.73;1736018;82;21012;-44
2022/05/28 00:22:44;;;;;;;3.15;2.58;;;;;;;15.96;92.50;100017.13;1736003;82;21020;-44
2022/05/28 00:25:13;;;;;;;6.08;3.00;;;;;;;15.89;93.05;100010.03;1736033;82;20969;-44
2022/05/28 00:27:41;;;;;;;9.58;3.35;;;;;;;15.82;93.43;100020.36;1735957;82;21699;-45
2022/05/28 00:30:10;;;;;;;3.72;2.90;;;;;;;15.78;93.98;100032.22;1735878;82;21233;-44
2022/05/28 00:32:37;;;;;;;4.70;2.72;;;;;;;15.74;94.22;100016.32;1735766;82;21526;-44
2022/05/28 00:35:06;;;;;;;5.42;2.52;;;;;;;15.69;94.48;100035.73;1735964;82;20886;-44
2022/05/28 00:37:33;;;;;;;5.47;1.50;;;;;;;15.68;94.82;100051.01;1735918;82;21493;-44
2022/05/28 00:40:05;;;;;;;2.25;1.20;;;;;;;15.51;87.57;100058.66;1735895;81;20885;-44
2022/05/28 00:42:32;;;;;;;3.65;1.20;;;;;;;15.22;87.51;100082.98;1735867;82;22129;-44
2022/05/28 00:44:59;;;;;;;6.00;1.00;;;;;;;14.87;87.22;100080.14;1735880;82;20913;-44
2022/05/28 00:47:26;;;;;;;3.60;0.90;;;;;;;14.61;87.85;100094.20;1735916;82;20973;-44
2022/05/28 00:49:53;;;;;;;2.58;0.95;;;;;;;14.34;88.70;100087.47;1735938;82;20988;-44
2022/05/28 00:52:21;;;;;;;1.20;0.93;;;;;;;14.14;89.34;100090.01;1735905;82;20953;-44
2022/05/28 00:54:48;;;;;;;2.72;0.88;;;;;;;13.93;89.85;100092.09;1735920;82;21321;-44
2022/05/28 00:57:16;;;;;;;1.98;1.00;;;;;;;13.76;91.04;100098.37;1735947;82;21391;-44
2022/05/28 00:59:44;;;;;;;1.90;1.05;;;;;;;13.63;91.62;100091.48;1735690;82;20972;-44
2022/05/28 01:02:41;;;;;;;6.50;0.90;;;;;;;13.53;91.87;100089.66;1735920;82;21486;-44
2022/05/28 01:05:28;;;;;;;4.87;0.93;;;;;;;13.49;92.36;100090.69;1735959;82;20893;-44
2022/05/28 01:08:15;;;;;;;4.12;1.00;;;;;;;13.41;92.51;100087.49;1735893;82;21108;-45
2022/05/28 01:11:05;;;;;;;1.17;1.02;;;;;;;13.32;93.26;100086.06;1735744;81;20929;-44
2022/05/28 01:14:03;;;;;;;4.10;1.20;;;;;;;13.28;93.46;100093.58;1735817;82;21000;-44
2022/05/28 01:16:44;;;;;;;1.02;0.93;;;;;;;13.23;93.91;100093.27;1735896;82;20981;-45
2022/05/28 01:19:38;;;;;;;3.87;0.85;;;;;;;13.19;94.43;100090.38;1735717;81;20920;-45
2022/05/28 01:22:33;;;;;;;2.45;1.05;;;;;;;13.16;94.82;100091.80;1735887;82;21674;-45
2022/05/28 01:25:17;;;;;;;2.20;0.75;;;;;;;13.11;95.65;100091.11;1735749;82;20850;-44
2022/05/28 01:27:51;;;;;;;2.98;0.88;;;;;;;13.10;96.27;100083.36;1735872;82;20968;-45
2022/05/28 01:30:18;;;;;;;3.92;0.80;;;;;;;13.07;96.45;100085.16;1735725;81;21447;-46
2022/05/28 01:32:50;;;;;;;1.95;0.80;;;;;;;13.07;96.62;100096.02;1735939;82;20936;-45
2022/05/28 01:36:03;;;;;;;1.32;0.90;;;;;;;13.07;97.46;100112.45;1798344;79;22591;-45
2022/05/28 01:38:31;;;;;;;1.35;1.10;;;;;;;13.01;97.58;100120.89;1758112;80;20905;-44
2022/05/28 01:40:58;;;;;;;3.60;0.90;;;;;;;12.99;97.38;100113.17;1757328;81;21270;-44
2022/05/28 01:43:25;;;;;;;1.62;0.88;;;;;;;12.99;97.49;100123.56;1749810;82;20960;-44
2022/05/28 01:45:53;;;;;;;1.00;0.90;;;;;;;12.98;97.35;100128.80;1749828;82;20905;-44
2022/05/28 01:48:20;;;;;;;1.95;1.07;;;;;;;12.95;97.63;100121.97;1749816;82;20889;-44
2022/05/28 01:50:49;;;;;;;7.37;0.90;;;;;;;12.91;97.90;100119.08;1749840;82;20884;-44
2022/05/28 01:56:05;;;;;;;3.90;1.05;;;;;;;12.77;97.68;100131.23;1749745;82;20956;-43
2022/05/28 01:58:33;;;;;;;6.92;0.75;;;;;;;12.67;97.86;100129.81;1749667;82;20845;-44
2022/05/28 02:01:00;;;;;;;3.02;1.62;;;;;;;12.59;97.88;100133.95;1749796;82;21030;-43
2022/05/28 02:03:27;;;;;;;1.12;0.80;;;;;;;12.50;98.01;100137.25;1749705;82;20924;-43
2022/05/28 02:05:56;;;;;;;0.72;0.70;;;;;;;12.44;98.23;100136.58;1720690;82;21214;-43
2022/05/28 02:08:23;;;;;;;0.70;0.70;;;;;;;12.38;98.37;100140.67;1749720;82;20833;-43
2022/05/28 02:10:58;;;;;;;5.12;0.60;;;;;;;12.31;98.48;100136.11;1749682;81;20984;-43
2022/05/28 02:13:28;;;;;;;0.80;0.80;;;;;;;12.26;98.69;100144.06;1747060;80;21481;-44
2022/05/28 02:16:03;;;;;;;1.55;0.78;;;;;;;12.20;99.15;100137.73;1749717;82;20972;-44
2022/05/28 02:18:58;;;;;;;2.52;0.70;;;;;;;12.14;99.32;100140.52;1750086;80;21115;-44
2022/05/28 02:21:33;;;;;;;3.05;0.70;;;;;;;12.10;99.64;100145.41;1749698;82;21019;-44
2022/05/28 02:24:07;;;;;;;2.47;0.50;;;;;;;11.98;100.00;100154.36;1749781;81;21003;-44
2022/05/28 02:26:51;;;;;;;2.75;0.68;;;;;;;11.98;100.00;100154.36;1749677;82;21385;-44
2022/05/28 02:29:19;;;;;;;4.47;0.70;;;;;;;11.95;100.00;100151.86;1749769;81;21398;-45
2022/05/28 02:31:46;;;;;;;1.42;0.90;;;;;;;11.91;99.73;100164.06;1750082;82;21992;-44
2022/05/28 02:34:14;;;;;;;1.85;0.98;;;;;;;11.88;99.71;100165.45;1749844;81;21070;-44
2022/05/28 02:36:42;;;;;;;0.53;0.53;;;;;;;11.86;99.71;100171.96;1750496;81;21071;-44
2022/05/28 02:39:09;;;;;;;0.55;0.40;;;;;;;11.83;99.67;100186.31;1750586;82;20892;-45
2022/05/28 02:41:38;;;;;;;0.98;0.40;;;;;;;11.83;100.00;100187.61;1750393;82;20964;-44
2022/05/28 02:44:05;;;;;;;0.85;0.60;;;;;;;11.83;99.33;100194.09;1750369;82;21459;-45
2022/05/28 02:46:33;;;;;;;0.60;0.60;;;;;;;11.77;98.59;100187.79;1722525;82;21458;-44
2022/05/28 02:49:00;;;;;;;1.22;0.50;;;;;;;11.76;98.62;100184.80;1749955;82;20932;-45
2022/05/28 02:51:27;;;;;;;0.88;0.57;;;;;;;11.77;98.27;100180.01;1750037;82;20897;-44
2022/05/28 02:53:54;;;;;;;0.45;0.45;;;;;;;11.76;98.18;100173.98;1749823;82;21474;-44
2022/05/28 02:56:21;;;;;;;0.78;0.50;;;;;;;11.77;98.18;100175.69;1750034;82;21246;-44
2022/05/28 02:58:48;;;;;;;0.93;0.50;;;;;;;11.78;98.02;100173.50;1749830;82;20964;-44
2022/05/28 03:01:28;;;;;;;0.40;0.40;;;;;;;11.78;97.97;100177.39;1750034;82;20937;-44
2022/05/28 03:03:56;;;;;;;0.65;0.50;;;;;;;11.82;97.94;100184.62;1749978;82;20929;-45
2022/05/28 03:06:22;;;;;;;3.45;0.78;;;;;;;11.86;97.38;100186.69;1722344;82;21000;-44
2022/05/28 03:08:49;;;;;;;0.62;0.42;;;;;;;11.90;97.06;100195.64;1749948;82;21245;-44
2022/05/28 03:11:16;;;;;;;0.57;0.40;;;;;;;11.93;96.58;100195.55;1749939;82;20972;-45
2022/05/28 03:13:44;;;;;;;0.40;0.37;;;;;;;11.97;95.85;100188.52;1749798;82;20995;-43
2022/05/28 03:16:11;;;;;;;1.05;0.57;;;;;;;12.01;95.30;100188.03;1750106;82;20944;-43
2022/05/28 03:18:37;;;;;;;0.90;0.30;;;;;;;12.08;94.83;100190.84;1750042;82;21003;-43
2022/05/28 03:21:05;;;;;;;0.40;0.40;;;;;;;12.17;94.47;100186.70;1749892;82;21157;-43
2022/05/28 03:23:33;;;;;;;1.47;0.57;;;;;;;12.26;94.06;100189.91;1749938;82;20888;-43
2022/05/28 03:26:21;;;;;;;0.82;0.65;;;;;;;12.34;93.70;100181.00;1749843;82;20940;-43
2022/05/28 03:28:49;;;;;;;2.12;0.40;;;;;;;12.43;93.51;100184.20;1749903;82;21435;-43
2022/05/28 03:31:16;;;;;;;0.68;0.40;;;;;;;12.53;92.92;100183.48;1749804;82;21498;-43
2022/05/28 03:33:43;;;;;;;0.98;0.37;;;;;;;12.58;90.88;100183.74;1749893;82;22050;-43
2022/05/28 03:36:10;;;;;;;0.65;0.30;;;;;;;12.62;90.86;100180.58;1749848;81;20925;-43
2022/05/28 03:38:38;;;;;;;1.37;0.60;;;;;;;12.70;90.72;100179.91;1750000;82;20928;-43
2022/05/28 03:41:06;;;;;;;0.50;0.50;;;;;;;12.71;90.09;100169.92;1749878;82;20881;-43
2022/05/28 03:43:33;;;;;;;2.98;0.57;;;;;;;12.73;89.54;100176.35;1749834;82;20936;-43
2022/05/28 03:46:00;;;;;;;0.90;0.30;;;;;;;12.77;89.83;100184.47;1749951;82;21743;-43
2022/05/28 03:48:27;;;;;;;1.00;0.40;;;;;;;12.81;89.37;100195.16;1749841;82;20964;-43
2022/05/28 03:50:54;;;;;;;5.83;0.60;;;;;;;12.86;89.28;100210.58;1749967;82;20874;-43
2022/05/28 03:53:21;;;;;;;0.85;0.40;;;;;;;12.98;88.25;100217.98;1749688;82;21038;-43
2022/05/28 03:55:48;;;;;;;0.30;0.25;;;;;;;13.17;88.02;100201.80;1750036;82;20885;-43
2022/05/28 03:58:16;;;;;;;2.37;0.30;;;;;;;13.36;87.15;100189.86;1749833;82;21172;-44
2022/05/28 04:00:44;;;;;;;0.65;0.45;;;;;;;13.56;85.93;100190.96;1749792;82;20935;-44
2022/05/28 04:03:11;;;;;;;1.20;0.65;;;;;;;13.61;82.19;100209.84;1749980;82;20921;-44
2022/05/28 04:05:40;;;;;;;1.10;0.30;;;;;;;13.53;81.75;100203.24;1749914;82;21539;-44
2022/05/28 04:08:07;;;;;;;1.72;0.45;;;;;;;13.43;83.09;100208.73;1749884;82;20936;-45
2022/05/28 04:10:34;;;;;;;0.37;0.30;;;;;;;13.37;82.74;100218.02;1749865;82;21154;-44
2022/05/28 04:13:01;;;;;;;0.30;0.30;;;;;;;13.29;82.61;100229.14;1749670;80;21494;-44
2022/05/28 04:15:28;;;;;;;0.25;0.25;;;;;;;13.19;82.89;100218.20;1749908;82;20929;-44
2022/05/28 04:17:55;;;;;;;2.87;0.50;;;;;;;13.15;84.01;100220.03;1749836;82;20968;-44
2022/05/28 04:20:23;;;;;;;1.02;0.72;;;;;;;13.13;84.36;100228.33;1749809;82;20829;-44
2022/05/28 04:22:49;;;;;;;0.47;0.47;;;;;;;13.19;84.68;100207.80;1749811;82;21218;-44
2022/05/28 04:25:16;;;;;;;0.55;0.55;;;;;;;13.28;84.38;100213.98;1749830;82;21003;-44
2022/05/28 04:27:44;;;;;;;0.40;0.40;;;;;;;13.37;83.27;100204.55;1749898;82;21534;-44
2022/05/28 04:30:12;;;;;;;0.33;0.33;;;;;;;13.52;83.28;100208.05;1750023;82;20885;-44
2022/05/28 04:32:40;;;;;;;5.25;2.08;;;;;;;13.65;82.99;100206.70;1722657;82;21466;-44
2022/05/28 04:35:08;;;;;;;0.85;0.40;;;;;;;13.67;81.47;100203.59;1749585;81;22323;-44
2022/05/28 04:37:35;;;;;;;1.12;0.40;;;;;;;13.70;81.21;100202.17;1749656;82;21031;-44
2022/05/28 04:40:04;;;;;;;0.95;0.47;;;;;;;13.73;81.50;100214.23;1749686;82;20854;-44
2022/05/28 04:42:31;;;;;;;0.40;0.40;;;;;;;13.76;82.17;100213.66;1749716;82;21431;-44
2022/05/28 04:44:58;;;;;;;1.20;0.40;;;;;;;13.85;82.39;100216.85;1749850;80;20976;-44
2022/05/28 04:47:25;;;;;;;0.25;0.25;;;;;;;13.85;81.86;100222.06;1749960;82;21801;-45
2022/05/28 04:49:53;;;;;;;1.72;0.40;;;;;;;13.85;82.06;100241.56;1749896;82;20885;-44
2022/05/28 04:52:21;;;;;;;2.52;0.60;;;;;;;13.85;82.03;100241.09;1749839;82;20965;-44
2022/05/28 04:54:48;;;;;;;0.50;0.50;;;;;;;13.86;81.97;100240.66;1749961;82;20972;-45
2022/05/28 04:57:16;;;;;;;1.45;0.30;;;;;;;13.94;82.25;100239.48;1749937;82;20873;-44
2022/05/28 04:59:43;;;;;;;0.20;0.20;;;;;;;14.10;82.64;100228.97;1749688;82;21122;-44
2022/05/28 05:02:10;;;;;;;0.75;0.50;;;;;;;14.26;81.85;100231.85;1749916;82;20925;-44
2022/05/28 05:04:37;;;;;;;0.75;0.30;;;;;;;14.35;80.67;100242.77;1749641;82;20889;-44
2022/05/28 05:07:04;;;;;;;2.40;0.30;;;;;;;14.40;79.76;100246.95;1749881;82;20869;-44
2022/05/28 05:09:31;;;;;;;0.95;0.50;;;;;;;14.45;79.33;100241.98;1749926;82;21422;-44
2022/05/28 05:11:59;;;;;;;3.08;0.40;;;;;;;14.42;77.54;100246.44;1749922;82;21922;-44
2022/05/28 05:14:26;;;;;;;0.50;0.50;;;;;;;14.34;78.01;100251.49;1749857;82;20932;-44
2022/05/28 05:16:53;;;;;;;0.50;0.50;;;;;;;14.22;76.91;100244.98;1749955;82;20940;-44
2022/05/28 05:19:20;;;;;;;0.80;0.30;;;;;;;14.17;77.02;100247.36;1749724;81;21347;-44
2022/05/28 05:21:47;;;;;;;0.75;0.50;;;;;;;14.08;77.19;100252.00;1749757;82;20959;-44
2022/05/28 05:24:16;;;;;;;0.62;0.40;;;;;;;14.04;77.43;100253.02;1749906;80;20949;-44
2022/05/28 05:26:43;;;;;;;1.55;0.40;;;;;;;13.99;78.11;100248.41;1749876;82;21431;-45
2022/05/28 05:29:10;;;;;;;3.75;0.47;;;;;;;13.96;78.61;100247.69;1749756;82;20873;-44
2022/05/28 05:31:37;;;;;;;0.53;0.50;;;;;;;13.91;78.42;100260.86;1749769;82;20945;-45
2022/05/28 05:34:04;;;;;;;0.65;0.57;;;;;;;13.84;78.64;100259.38;1749635;82;21478;-45
2022/05/28 05:36:32;;;;;;;0.57;0.57;;;;;;;13.79;79.14;100269.50;1739207;81;21391;-45
2022/05/28 05:38:59;;;;;;;0.95;0.60;;;;;;;13.76;79.60;100266.98;1735868;82;20885;-43
2022/05/28 05:41:26;;;;;;;1.40;0.60;;;;;;;13.81;79.58;100267.30;1735855;82;21000;-44
2022/05/28 05:43:54;;;;;;;2.75;0.70;;;;;;;13.83;79.61;100262.89;1735905;82;21014;-46
2022/05/28 05:46:20;;;;;;;2.05;0.30;;;;;;;13.88;80.19;100283.08;1736027;82;21424;-44
2022/05/28 05:48:47;;;;;;;1.57;0.75;;;;;;;13.89;80.30;100290.84;1736131;82;21478;-44
2022/05/28 05:51:16;;;;;;;0.50;0.50;;;;;;;13.96;80.53;100275.84;1735537;82;20964;-45
2022/05/28 05:53:43;;;;;;;2.05;0.60;;;;;;;14.07;80.42;100274.16;1735881;82;22162;-45
2022/05/28 05:56:10;;;;;;;0.40;0.37;;;;;;;14.15;79.92;100269.55;1735803;82;20905;-45
2022/05/28 05:58:38;;;;;;;3.58;0.70;;;;;;;14.25;79.75;100260.92;1735757;82;21581;-45
2022/05/28 06:01:06;;;;;;;2.22;0.70;;;;;;;14.36;79.52;100268.34;1735854;82;21202;-45
2022/05/28 06:03:33;;;;;;;2.58;0.62;;;;;;;14.41;78.77;100284.67;1735800;82;20921;-45
2022/05/28 06:06:04;;;;;;;5.85;0.62;;;;;;;14.42;78.18;100286.36;1735794;82;20980;-45
2022/05/28 06:08:31;;;;;;;0.93;0.60;;;;;;;14.41;76.12;100292.91;1735701;81;20980;-45
2022/05/28 06:10:59;;;;;;;1.47;1.00;;;;;;;14.32;75.77;100298.88;1735677;81;20842;-45
2022/05/28 06:13:28;;;;;;;2.02;1.05;;;;;;;14.17;73.78;100296.38;1735897;82;21447;-45
2022/05/28 06:15:55;;;;;;;1.62;0.57;;;;;;;14.03;74.42;100283.85;1735625;82;21135;-44
2022/05/28 06:18:22;;;;;;;0.45;0.45;;;;;;;13.93;75.01;100287.67;1736061;82;21064;-45
2022/05/28 06:20:49;;;;;;;1.72;1.00;;;;;;;13.87;75.02;100289.19;1735900;82;20869;-44
2022/05/28 06:23:18;;;;;;;0.88;0.70;;;;;;;13.81;75.94;100290.71;1735941;82;20976;-45
2022/05/28 06:25:45;;;;;;;1.75;0.80;;;;;;;13.78;75.56;100290.35;1735919;82;21908;-45
2022/05/28 06:28:12;;;;;;;4.72;0.88;;;;;;;13.77;75.73;100285.62;1735827;82;20925;-45
2022/05/28 06:30:43;;;;;;;2.98;0.85;;;;;;;13.74;74.18;100296.56;1735659;82;21566;-45
2022/05/28 06:33:09;;;;;;;1.17;0.80;;;;;;;13.73;74.69;100296.17;1735821;82;20897;-45
2022/05/28 06:35:36;;;;;;;0.55;0.55;;;;;;;13.74;74.70;100304.38;1738920;82;21024;-45
2022/05/28 06:38:04;;;;;;;1.22;0.70;;;;;;;13.79;75.16;100293.35;1749951;82;21961;-45
2022/05/28 06:40:31;;;;;;;0.90;0.78;;;;;;;13.87;75.53;100299.59;1749841;82;21566;-44
2022/05/28 06:42:58;;;;;;;0.70;0.70;;;;;;;13.90;75.15;100295.14;1749892;82;20978;-45
2022/05/28 06:45:26;;;;;;;2.35;0.53;;;;;;;13.98;75.55;100298.76;1749961;80;20976;-44
2022/05/28 06:47:52;;;;;;;1.42;0.68;;;;;;;14.06;75.64;100299.36;1749947;82;20928;-45
2022/05/28 06:53:08;;;;;;;1.75;0.72;;;;;;;14.19;74.14;100290.66;1750368;82;21487;-45
2022/05/28 06:55:36;;;;;;;3.20;0.80;;;;;;;14.30;75.50;100298.08;1749938;82;20972;-45
2022/05/28 06:58:06;;;;;;;2.83;0.82;;;;;;;14.51;75.08;100286.01;1749863;82;21533;-45
2022/05/28 07:00:35;;;;;;;0.80;0.80;;;;;;;14.69;73.12;100293.17;1749947;81;20960;-45
2022/05/28 07:03:03;;;;;;;3.92;0.70;;;;;;;14.65;71.05;100310.23;1749921;82;22216;-45
2022/05/28 07:05:30;;;;;;;1.65;1.02;;;;;;;14.61;70.48;100313.00;1722586;82;20983;-46
2022/05/28 07:07:57;;;;;;;5.20;1.07;;;;;;;14.55;70.37;100315.84;1749988;82;20983;-45
2022/05/28 07:10:24;;;;;;;2.12;0.88;;;;;;;14.55;70.52;100329.73;1750033;82;21544;-45
2022/05/28 07:12:52;;;;;;;0.60;0.60;;;;;;;14.63;71.08;100328.11;1749916;82;21723;-45
2022/05/28 07:15:19;;;;;;;0.95;0.75;;;;;;;14.81;70.82;100322.72;1749982;82;21220;-44
2022/05/28 07:17:46;;;;;;;0.82;0.82;;;;;;;14.94;69.33;100318.72;1749975;82;20944;-44
2022/05/28 07:20:13;;;;;;;1.30;0.80;;;;;;;15.08;70.29;100325.16;1749965;82;21340;-45
2022/05/28 07:22:40;;;;;;;3.05;0.82;;;;;;;15.33;70.12;100326.79;1749972;82;20897;-44
2022/05/28 07:25:09;;;;;;;2.92;0.90;;;;;;;15.57;67.68;100322.31;1749985;82;20979;-45
2022/05/28 07:27:36;;;;;;;6.90;0.80;;;;;;;15.75;68.41;100321.16;1749798;81;21077;-46
2022/05/28 07:30:04;;;;;;;5.15;0.82;;;;;;;16.04;67.35;100323.88;1749812;82;20972;-45
2022/05/28 07:32:32;;;;;;;8.00;0.93;;;;;;;16.29;66.29;100329.77;1749795;82;21351;-45
2022/05/28 07:34:59;;;;;;;5.75;1.10;;;;;;;16.51;65.64;100330.50;1749757;82;20861;-45
2022/05/28 07:37:28;;;;;;;3.17;1.00;;;;;;;16.74;64.36;100327.74;1749652;82;21040;-46
2022/05/28 07:39:55;;;;;;;1.47;1.37;;;;;;;16.88;63.73;100334.50;1722521;82;21352;-46
2022/05/28 07:42:21;;;;;;;5.90;0.80;;;;;;;16.83;63.64;100337.79;1750091;82;21430;-45
2022/05/28 07:44:49;;;;;;;1.95;1.10;;;;;;;16.79;63.33;100337.52;1749968;82;20976;-46
2022/05/28 07:47:16;;;;;;;2.92;1.05;;;;;;;16.68;62.61;100338.05;1749991;82;20869;-45
2022/05/28 07:49:43;;;;;;;1.95;1.07;;;;;;;16.41;62.96;100341.44;1749856;82;20937;-44
2022/05/28 07:52:10;;;;;;;3.27;1.12;;;;;;;16.23;64.04;100340.02;1749846;82;21260;-45
2022/05/28 07:54:36;;;;;;;1.02;0.90;;;;;;;16.31;64.57;100340.55;1750026;82;20904;-44
2022/05/28 07:57:05;;;;;;;3.87;0.95;;;;;;;16.42;64.78;100344.44;1749958;82;21367;-44
2022/05/28 07:59:31;;;;;;;11.57;1.22;;;;;;;16.48;63.80;100348.07;1749938;82;20988;-45
2022/05/28 08:01:58;;;;;;;21.82;1.47;;;;;;;16.50;63.26;100343.17;1749849;82;20948;-44
2022/05/28 08:04:25;;;;;;;3.20;1.20;;;;;;;16.40;63.50;100346.27;1749957;82;21881;-44
2022/05/28 08:06:52;;;;;;;5.00;0.95;;;;;;;16.40;63.19;100347.09;1749870;82;20877;-46
2022/05/28 08:09:19;;;;;;;4.35;0.78;;;;;;;16.28;63.71;100340.66;1749709;82;21034;-45
2022/05/28 08:11:46;;;;;;;11.83;1.40;;;;;;;16.28;64.17;100351.10;1749744;80;20967;-45
2022/05/28 08:14:13;;;;;;;1.65;0.72;;;;;;;16.39;64.52;100354.55;1749871;82;20948;-45
2022/05/28 08:16:42;;;;;;;1.35;0.70;;;;;;;16.48;64.41;100359.38;1749588;82;22289;-45
2022/05/28 08:19:09;;;;;;;3.42;1.00;;;;;;;16.57;62.98;100364.66;1749673;82;20968;-45
2022/05/28 08:24:22;;;;;;;1.12;0.90;;;;;;;16.36;63.75;100367.30;1749975;82;20940;-45
2022/05/28 08:26:48;;;;;;;2.65;0.80;;;;;;;16.36;63.87;100371.22;1749812;82;21466;-45
2022/05/28 08:29:17;;;;;;;2.58;1.00;;;;;;;16.40;63.01;100376.31;1750016;82;21234;-43
2022/05/28 08:31:45;;;;;;;10.25;1.57;;;;;;;16.48;63.59;100376.36;1749825;82;21456;-45
2022/05/28 08:34:12;;;;;;;5.12;1.20;;;;;;;16.55;63.07;100383.48;1749731;80;20960;-45
2022/05/28 08:36:39;;;;;;;1.52;1.10;;;;;;;16.64;61.70;100379.13;1749744;81;20987;-44
2022/05/28 08:39:05;;;;;;;0.80;0.80;;;;;;;16.50;62.74;100372.36;1750103;82;20993;-44
2022/05/28 08:41:41;;;;;;;0.82;0.80;;;;;;;16.50;62.46;100364.08;1749791;82;21285;-44
2022/05/28 08:44:19;;;;;;;5.62;1.00;;;;;;;16.54;62.96;100363.94;1749857;82;20988;-45
2022/05/28 08:46:54;;;;;;;2.87;0.90;;;;;;;16.69;61.44;100367.62;1746738;82;21506;-45
2022/05/28 08:49:25;;;;;;;1.20;1.00;;;;;;;16.85;61.09;100371.23;1749666;82;21478;-45
2022/05/28 08:51:56;;;;;;;2.10;1.10;;;;;;;16.91;60.13;100371.39;1749945;82;20889;-46
2022/05/28 08:54:36;;;;;;;2.90;0.80;;;;;;;17.01;61.01;100382.30;1749959;81;20983;-45
2022/05/28 08:57:11;;;;;;;8.08;1.05;;;;;;;17.17;59.47;100385.91;1749724;82;20876;-46
2022/05/28 08:59:42;;;;;;;;;;;;;;;17.08;59.31;100388.97;1752451;82;20916;-45
2022/05/28 09:02:17;;;;;;;3.27;1.70;;;;;;;16.87;60.00;100393.37;1749802;82;20114;-45
2022/05/28 09:04:44;;;;;;;1.70;1.60;;;;;;;16.68;59.48;100399.45;1750069;82;20944;-45
2022/05/28 09:07:14;;;;;;;3.55;1.67;;;;;;;16.54;61.04;100396.12;1749941;82;21297;-44
2022/05/28 09:09:46;;;;;;;4.92;1.67;;;;;;;16.54;61.92;100386.14;1749717;82;20956;-44
2022/05/28 09:12:17;;;;;;;1.75;1.65;;;;;;;16.46;62.46;100380.81;1749823;82;20991;-45
2022/05/28 09:14:45;;;;;;;6.00;2.05;;;;;;;16.45;62.49;100390.01;1749618;82;20940;-44
2022/05/28 09:17:29;;;;;;;2.20;1.92;;;;;;;16.47;62.89;100388.17;1749503;82;20932;-45
2022/05/28 09:19:59;;;;;;;2.92;1.87;;;;;;;16.54;63.05;100378.31;1743796;82;21178;-45
2022/05/28 09:22:26;;;;;;;4.00;2.12;;;;;;;16.79;63.35;100380.20;1749568;82;21023;-45
2022/05/28 09:24:53;;;;;;;3.17;2.22;;;;;;;17.08;62.19;100373.28;1749722;82;20857;-45
2022/05/28 09:27:57;;;;;;;10.48;2.12;;;;;;;17.37;60.96;100379.72;1749741;82;21015;-45
2022/05/28 09:30:45;;;;;;;4.72;2.70;;;;;;;17.43;58.59;100379.02;1749774;82;20978;-45
2022/05/28 09:33:44;;;;;;;6.25;2.70;;;;;;;17.51;57.65;100388.68;1748620;82;21573;-45
2022/05/28 09:36:22;;;;;;;4.22;2.52;;;;;;;17.64;57.16;100386.31;1749409;82;21062;-45
2022/05/28 09:39:04;;;;;;;10.65;2.25;;;;;;;17.89;58.33;100376.76;1749954;82;20929;-45
2022/05/28 09:41:51;;;;;;;1.75;1.50;;;;;;;18.15;57.25;100369.85;1750126;81;20925;-45
2022/05/28 09:44:44;;;;;;;3.87;2.17;;;;;;;18.36;55.19;100372.67;1749948;82;21015;-45
2022/05/28 09:47:16;;;;;;;3.47;1.95;;;;;;;18.64;55.17;100373.83;1749885;81;21176;-45
2022/05/28 09:49:50;;;;;;;1.67;1.57;;;;;;;19.24;55.83;100378.06;1749736;82;20944;-46
2022/05/28 09:52:31;;;;;;;2.60;1.70;;;;;;;19.96;52.83;100377.48;1749737;81;21134;-46
2022/05/28 09:55:16;;;;;;;2.40;2.00;;;;;;;20.20;50.39;100370.39;1749663;82;20877;-46
2022/05/28 09:57:59;;;;;;;;;;;;;;;19.93;51.04;100375.05;1752447;82;20928;-45
2022/05/28 10:00:26;;;;;;;5.35;2.40;;;;;;;19.66;51.77;100368.65;1749657;81;21166;-44
2022/05/28 10:05:45;;;;;;;11.22;2.25;;;;;;;19.03;52.96;100381.39;1749807;82;20975;-45
2022/05/28 10:08:12;;;;;;;10.05;2.33;;;;;;;18.98;54.21;100378.16;1749294;82;20983;-45
2022/05/28 10:10:40;;;;;;;3.95;2.10;;;;;;;19.13;54.73;100374.73;1750076;82;21363;-46
2022/05/28 10:13:23;;;;;;;4.22;1.87;;;;;;;19.41;54.13;100377.56;1750060;82;21263;-45
2022/05/28 10:15:58;;;;;;;5.25;1.60;;;;;;;19.60;53.34;100373.44;1749784;81;20889;-45
2022/05/28 10:18:39;;;;;;;6.83;1.67;;;;;;;19.63;52.24;100374.56;1749993;82;20972;-45
2022/05/28 10:21:10;;;;;;;2.50;1.60;;;;;;;19.74;51.33;100373.46;1749886;82;21482;-45
2022/05/28 10:23:40;;;;;;;3.45;1.50;;;;;;;19.64;51.45;100373.63;1750027;82;20948;-45
2022/05/28 10:26:17;;;;;;;3.52;1.10;;;;;;;19.63;52.50;100371.45;1749819;82;21292;-45
2022/05/28 10:28:49;;;;;;;1.02;1.00;;;;;;;19.65;53.28;100366.95;1749887;82;20968;-45
2022/05/28 10:31:21;;;;;;;2.27;1.00;;;;;;;19.67;52.12;100362.95;1749901;82;20896;-45
2022/05/28 10:33:48;;;;;;;3.12;1.10;;;;;;;19.65;51.56;100361.71;1749769;82;20970;-44
2022/05/28 10:36:17;;;;;;;1.35;1.25;;;;;;;19.68;53.01;100357.59;1750346;82;20975;-44
2022/05/28 10:38:45;;;;;;;2.55;1.10;;;;;;;19.91;52.26;100364.62;1749992;81;21278;-46
2022/05/28 10:41:25;;;;;;;3.00;1.27;;;;;;;19.86;51.40;100359.25;1749917;82;20983;-46
2022/05/28 10:43:51;;;;;;;4.15;1.40;;;;;;;19.80;52.22;100359.97;1750234;82;20920;-45
2022/05/28 10:46:29;;;;;;;2.02;1.15;;;;;;;19.78;51.07;100358.38;1749833;82;20850;-45
2022/05/28 10:49:25;;;;;;;2.72;1.20;;;;;;;19.87;52.99;100361.77;1749882;82;20937;-44
2022/05/28 10:52:23;;;;;;;4.53;1.10;;;;;;;19.91;51.16;100366.41;1749970;81;21251;-44
2022/05/28 10:55:07;;;;;;;6.17;0.98;;;;;;;19.85;52.49;100365.44;1749678;82;20912;-44
2022/05/28 10:57:49;;;;;;;1.65;0.90;;;;;;;19.94;51.32;100355.72;1749996;81;20956;-45
2022/05/28 11:00:38;;;;;;;1.12;1.00;;;;;;;20.20;50.97;100355.45;1749610;82;20857;-44
2022/05/28 11:03:36;;;;;;;0.95;0.90;;;;;;;20.44;50.92;100351.44;1750110;82;21015;-46
2022/05/28 11:06:39;;;;;;;1.25;0.90;;;;;;;20.45;50.26;100346.55;1750038;82;21172;-44
2022/05/28 11:09:30;;;;;;;0.98;0.90;;;;;;;20.66;50.66;100342.59;1741102;82;21569;-45
2022/05/28 11:12:14;;;;;;;6.72;1.10;;;;;;;20.76;50.61;100326.22;1749873;81;20959;-46
2022/05/28 11:15:14;;;;;;;5.45;0.90;;;;;;;20.99;47.90;100327.89;1749511;82;20988;-46
2022/05/28 11:18:22;;;;;;;1.00;1.00;;;;;;;21.05;47.75;100334.06;1719448;82;20936;-45
2022/05/28 11:20:57;;;;;;;1.60;1.10;;;;;;;21.20;48.65;100324.33;1750003;82;21264;-46
2022/05/28 11:24:11;;;;;;;1.60;0.95;;;;;;;21.61;47.84;100313.34;1750131;82;21534;-45
2022/05/28 11:27:09;;;;;;;2.90;1.10;;;;;;;21.86;46.79;100307.75;1749835;82;20890;-47
2022/05/28 11:29:54;;;;;;;2.45;0.90;;;;;;;22.05;45.84;100299.42;1702179;82;21553;-46
2022/05/28 11:32:44;;;;;;;0.80;0.80;;;;;;;22.03;45.66;100294.73;1749971;82;20951;-45
2022/05/28 11:35:37;;;;;;;1.45;1.10;;;;;;;22.06;45.56;100309.84;1716058;82;21057;-48
2022/05/28 11:38:36;;;;;;;2.83;1.12;;;;;;;21.89;45.41;100304.91;1742155;82;20889;-46
2022/05/28 11:41:20;;;;;;;2.05;1.02;;;;;;;21.75;46.37;100304.05;1735928;82;20974;-45
2022/05/28 11:44:20;;;;;;;0.82;0.82;;;;;;;21.89;46.57;100305.73;1735885;82;21025;-45
2022/05/28 11:47:07;;;;;;;3.42;1.20;;;;;;;21.84;45.54;100306.53;1736271;82;20976;-45
2022/05/28 11:52:48;;;;;;;13.70;1.20;;;;;;;21.51;45.41;100299.45;1735710;82;21024;-46
2022/05/28 11:55:22;;;;;;;3.45;1.10;;;;;;;21.44;45.66;100312.67;1735789;82;21533;-46
2022/05/28 11:57:57;;;;;;;0.98;0.90;;;;;;;21.41;46.12;100312.88;1735699;82;20906;-45
2022/05/28 12:00:24;;;;;;;3.00;1.23;;;;;;;21.28;46.11;100315.94;1735136;82;20925;-46